createdAt,value
2022-09-05T00:01:48.771Z,74.23
2022-09-05T00:04:24.653Z,74.50
2022-09-05T00:07:02.797Z,74.73
2022-09-05T00:09:38.150Z,75.07
2022-09-05T00:12:06.596Z,75.14
2022-09-05T00:15:16.245Z,75.41
2022-09-05T00:19:45.135Z,74.88
2022-09-05T00:24:21.888Z,74.83
2022-09-05T00:24:27.146Z,74.49
2022-09-05T00:27:13.718Z,74.48
2022-09-05T00:31:06.958Z,75.39
2022-09-05T00:33:17.018Z,74.97
2022-09-05T00:36:11.126Z,74.46
2022-09-05T00:38:41.382Z,74.41
2022-09-05T00:41:12.843Z,75.45
2022-09-05T00:43:43.159Z,74.68
2022-09-05T00:46:22.764Z,75.80
2022-09-05T00:48:57.269Z,75.90
2022-09-05T00:51:34.424Z,75.59
2022-09-05T00:54:18.841Z,75.81
2022-09-05T00:57:05.340Z,75.57
2022-09-05T00:59:58.948Z,75.69
2022-09-05T01:02:33.347Z,75.75
2022-09-05T01:05:15.278Z,76.31
2022-09-05T01:08:01.990Z,76.42
2022-09-05T01:10:53.764Z,76.38
2022-09-05T01:14:00.486Z,76.16
2022-09-05T01:16:43.058Z,75.54
2022-09-05T01:19:17.727Z,75.23
2022-09-05T01:22:22.871Z,74.61
2022-09-05T01:24:54.662Z,75.00
2022-09-05T01:28:34.291Z,75.38
2022-09-05T01:31:09.473Z,74.89
2022-09-05T01:33:50.989Z,75.53
2022-09-05T01:36:41.041Z,75.15
2022-09-05T01:40:11.042Z,74.32
2022-09-05T01:42:36.993Z,73.94
2022-09-05T01:45:21.834Z,74.21
2022-09-05T01:48:02.835Z,74.79
2022-09-05T01:50:51.932Z,75.14
2022-09-05T01:53:38.746Z,74.63
2022-09-05T01:56:43.329Z,74.12
2022-09-05T01:59:25.466Z,74.18
2022-09-05T02:02:01.376Z,74.32
2022-09-05T02:05:06.062Z,75.22
2022-09-05T02:07:50.661Z,73.57
2022-09-05T02:11:06.554Z,73.51
2022-09-05T02:13:36.701Z,74.90
2022-09-05T02:16:05.978Z,75.30
2022-09-05T02:18:54.125Z,75.54
2022-09-05T02:21:56.562Z,76.58
2022-09-05T02:24:34.439Z,75.77
2022-09-05T02:27:33.766Z,76.21
2022-09-05T02:30:23.513Z,76.15
2022-09-05T02:33:02.330Z,76.39
2022-09-05T02:35:31.557Z,75.70
2022-09-05T02:40:34.657Z,76.42
2022-09-05T02:45:06.000Z,75.93
2022-09-05T02:45:11.149Z,76.05
2022-09-05T02:47:22.569Z,76.12
2022-09-05T02:53:59.270Z,75.80
2022-09-05T02:57:24.609Z,75.58
2022-09-05T02:57:39.932Z,75.00
2022-09-05T02:59:15.795Z,75.82
2022-09-05T03:01:56.580Z,76.91
2022-09-05T03:04:49.480Z,77.19
2022-09-05T03:07:41.311Z,76.97
2022-09-05T03:10:54.469Z,76.29
2022-09-05T03:14:06.402Z,76.99
2022-09-05T03:16:51.598Z,76.17
2022-09-05T03:19:46.593Z,75.70
2022-09-05T03:22:37.230Z,76.90
2022-09-05T03:25:30.543Z,77.17
2022-09-05T03:28:34.701Z,76.07
2022-09-05T03:31:25.798Z,75.60
2022-09-05T03:33:58.096Z,74.93
2022-09-05T03:37:06.034Z,75.45
2022-09-05T03:40:15.404Z,76.01
2022-09-05T03:43:21.337Z,75.84
2022-09-05T03:46:08.902Z,76.39
2022-09-05T03:48:53.752Z,75.78
2022-09-05T03:57:04.494Z,75.69
2022-09-05T03:57:15.452Z,75.54
2022-09-05T03:57:59.169Z,75.78
2022-09-05T04:00:37.038Z,75.57
2022-09-05T04:08:10.538Z,76.30
2022-09-05T04:08:19.742Z,76.23
2022-09-05T04:09:01.834Z,77.25
2022-09-05T04:11:35.592Z,77.18
2022-09-05T04:14:10.086Z,76.76
2022-09-05T04:16:51.559Z,77.88
2022-09-05T04:19:28.790Z,78.50
2022-09-05T04:22:09.931Z,78.02
2022-09-05T04:24:49.117Z,77.20
2022-09-05T04:27:28.139Z,77.15
2022-09-05T04:29:59.211Z,76.67
2022-09-05T04:32:40.883Z,76.99
2022-09-05T04:35:07.268Z,77.34
2022-09-05T04:37:48.858Z,76.42
2022-09-05T04:40:33.894Z,75.50
2022-09-05T04:43:08.462Z,75.11
2022-09-05T04:45:42.550Z,75.39
2022-09-05T04:48:14.998Z,74.76
2022-09-05T04:51:22.666Z,75.01
2022-09-05T04:54:14.941Z,74.81
2022-09-05T04:56:47.283Z,75.40
2022-09-05T05:01:03.104Z,75.35
2022-09-05T05:06:13.103Z,76.29
2022-09-05T05:06:18.348Z,76.77
2022-09-05T05:08:38.101Z,76.33
2022-09-05T05:17:29.890Z,76.07
2022-09-05T05:18:08.472Z,74.49
2022-09-05T05:18:10.725Z,74.61
2022-09-05T05:20:40.658Z,75.05
2022-09-05T05:23:08.323Z,75.81
2022-09-05T05:25:56.998Z,75.39
2022-09-05T05:28:50.053Z,75.69
2022-09-05T05:31:38.090Z,75.88
2022-09-05T05:34:24.709Z,76.18
2022-09-05T05:37:31.964Z,75.42
2022-09-05T05:40:02.731Z,73.96
2022-09-05T05:42:29.567Z,73.35
2022-09-05T05:44:58.952Z,72.53
2022-09-05T05:47:37.938Z,72.39
2022-09-05T05:50:38.609Z,73.11
2022-09-05T05:53:43.360Z,71.28
2022-09-05T05:56:35.034Z,70.33
2022-09-05T05:59:37.250Z,69.54
2022-09-05T06:02:35.994Z,67.48
2022-09-05T06:05:41.288Z,65.24
2022-09-05T06:10:35.408Z,62.79
2022-09-05T06:14:56.250Z,62.29
2022-09-05T06:15:07.079Z,61.61
2022-09-05T06:17:48.252Z,62.83
2022-09-05T06:22:06.749Z,61.45
2022-09-05T06:23:50.899Z,59.80
2022-09-05T06:26:24.849Z,59.62
2022-09-05T06:29:03.185Z,58.74
2022-09-05T06:31:42.133Z,58.35
2022-09-05T06:34:35.191Z,57.32
2022-09-05T06:37:21.199Z,56.78
2022-09-05T06:40:00.302Z,56.24
2022-09-05T06:42:44.913Z,55.66
2022-09-05T06:45:34.563Z,55.96
2022-09-05T06:48:36.618Z,56.73
2022-09-05T06:51:44.861Z,56.03
2022-09-05T06:54:26.757Z,55.23
2022-09-05T06:57:22.865Z,53.75
2022-09-05T07:00:04.537Z,53.36
2022-09-05T07:02:58.413Z,53.28
2022-09-05T07:05:44.816Z,53.06
2022-09-05T07:08:36.569Z,52.54
2022-09-05T07:11:34.539Z,51.55
2022-09-05T07:14:25.890Z,51.74
2022-09-05T07:17:08.564Z,51.64
2022-09-05T07:20:03.506Z,50.56
2022-09-05T07:22:49.262Z,50.77
2022-09-05T07:25:21.205Z,50.50
2022-09-05T07:28:29.607Z,50.89
2022-09-05T07:31:02.317Z,50.19
2022-09-05T07:33:31.224Z,49.57
2022-09-05T07:36:09.718Z,50.10
2022-09-05T07:38:55.290Z,50.33
2022-09-05T07:41:29.553Z,50.99
2022-09-05T07:44:15.591Z,49.66
2022-09-05T07:46:45.958Z,49.65
2022-09-05T07:49:18.459Z,49.24
2022-09-05T07:56:53.780Z,49.50
2022-09-05T07:57:07.807Z,49.20
2022-09-05T07:57:50.739Z,47.46
2022-09-05T08:00:26.896Z,46.16
2022-09-05T08:02:59.166Z,45.43
2022-09-05T08:05:35.214Z,43.69
2022-09-05T08:08:07.908Z,44.12
2022-09-05T08:11:23.514Z,42.65
2022-09-05T08:13:42.566Z,42.33
2022-09-05T08:16:17.416Z,42.57
2022-09-05T08:19:10.463Z,42.50
2022-09-05T08:21:50.514Z,42.46
2022-09-05T08:24:28.726Z,40.95
2022-09-05T08:27:10.155Z,40.73
2022-09-05T08:29:48.252Z,41.21
2022-09-05T08:32:46.832Z,40.44
2022-09-05T08:35:19.452Z,39.65
2022-09-05T08:37:48.087Z,40.24
2022-09-05T08:40:37.098Z,39.82
2022-09-05T08:46:36.372Z,39.78
2022-09-05T08:46:49.136Z,39.32
2022-09-05T08:49:45.557Z,39.73
2022-09-05T08:52:33.050Z,39.61
2022-09-05T08:55:19.656Z,39.57
2022-09-05T08:57:46.390Z,39.27
2022-09-05T09:00:24.261Z,39.00
2022-09-05T09:03:04.913Z,39.33
2022-09-05T09:06:14.457Z,38.43
2022-09-05T09:09:02.094Z,38.67
2022-09-05T09:11:37.206Z,37.55
2022-09-05T09:14:35.406Z,38.18
2022-09-05T09:17:10.680Z,37.38
2022-09-05T09:19:49.641Z,37.26
2022-09-05T09:22:34.241Z,36.88
2022-09-05T09:25:42.843Z,35.99
2022-09-05T09:28:48.674Z,35.90
2022-09-05T09:31:37.150Z,35.42
2022-09-05T09:34:26.337Z,34.55
2022-09-05T09:37:13.181Z,34.09
2022-09-05T09:40:04.387Z,35.02
2022-09-05T09:42:50.873Z,35.34
2022-09-05T09:45:36.074Z,35.49
2022-09-05T09:48:17.665Z,35.35
2022-09-05T09:51:22.785Z,35.83
2022-09-05T09:54:28.312Z,35.11
2022-09-05T09:57:32.945Z,35.65
2022-09-05T10:00:24.139Z,34.92
2022-09-05T10:07:19.896Z,35.07
2022-09-05T10:10:48.194Z,34.57
2022-09-05T10:11:00.443Z,34.67
2022-09-05T10:12:46.555Z,34.95
2022-09-05T10:15:31.088Z,35.09
2022-09-05T10:18:21.922Z,34.66
2022-09-05T10:21:32.326Z,34.00
2022-09-05T10:24:37.638Z,33.20
2022-09-05T10:27:36.355Z,33.39
2022-09-05T10:30:03.387Z,33.26
2022-09-05T10:35:11.305Z,33.15
2022-09-05T10:35:34.693Z,32.97
2022-09-05T10:38:11.394Z,33.53
2022-09-05T10:41:16.134Z,33.29
2022-09-05T10:43:32.258Z,32.53
2022-09-05T10:46:04.553Z,30.38
2022-09-05T10:48:53.403Z,29.62
2022-09-05T10:51:37.835Z,30.92
2022-09-05T10:54:27.928Z,30.95
2022-09-05T10:57:31.421Z,32.37
2022-09-05T11:02:18.723Z,33.58
2022-09-05T11:03:00.638Z,34.46
2022-09-05T11:05:30.869Z,33.65
2022-09-05T11:08:03.724Z,34.31
2022-09-05T11:10:35.880Z,34.28
2022-09-05T11:13:18.001Z,33.23
2022-09-05T11:16:04.295Z,33.59
2022-09-05T11:19:02.131Z,31.21
2022-09-05T11:21:49.025Z,29.52
2022-09-05T11:24:48.738Z,28.31
2022-09-05T11:27:36.812Z,29.15
2022-09-05T11:30:07.231Z,28.55
2022-09-05T11:36:33.696Z,29.45
2022-09-05T11:39:46.605Z,27.82
2022-09-05T11:39:53.322Z,27.01
2022-09-05T11:42:20.503Z,26.81
2022-09-05T11:45:12.489Z,26.12
2022-09-05T11:48:03.876Z,26.15
2022-09-05T11:51:08.918Z,24.43
2022-09-05T11:53:59.760Z,23.65
2022-09-05T11:56:50.865Z,24.60
2022-09-05T11:59:34.646Z,25.48
2022-09-05T12:02:32.733Z,25.70
2022-09-05T12:05:48.649Z,26.76
2022-09-05T12:08:09.641Z,26.71
2022-09-05T12:11:02.741Z,27.64
2022-09-05T12:13:54.808Z,26.92
2022-09-05T12:16:40.394Z,27.49
2022-09-05T12:19:22.995Z,27.72
2022-09-05T12:22:08.775Z,26.89
2022-09-05T12:25:24.358Z,27.50
2022-09-05T12:27:45.995Z,26.03
2022-09-05T12:30:22.012Z,29.91
2022-09-05T12:36:04.622Z,34.63
2022-09-05T12:40:33.951Z,36.21
2022-09-05T12:41:42.574Z,36.64
2022-09-05T12:42:33.211Z,37.02
2022-09-05T12:45:31.746Z,36.75
2022-09-05T12:48:15.788Z,37.32
2022-09-05T12:50:55.936Z,36.42
2022-09-05T12:53:24.826Z,35.93
2022-09-05T12:57:15.240Z,35.94
2022-09-05T13:02:57.555Z,37.73
2022-09-05T13:03:13.271Z,37.18
2022-09-05T13:05:01.961Z,36.20
2022-09-05T13:07:46.925Z,35.83
2022-09-05T13:13:18.598Z,36.33
2022-09-05T13:15:01.159Z,36.59
2022-09-05T13:16:09.256Z,37.17
2022-09-05T13:18:57.106Z,37.47
2022-09-05T13:21:27.145Z,37.45
2022-09-05T13:24:11.992Z,36.99
2022-09-05T13:26:44.346Z,36.08
2022-09-05T13:29:21.185Z,36.02
2022-09-05T13:37:54.209Z,36.51
2022-09-05T13:38:11.855Z,36.86
2022-09-05T13:38:15.899Z,36.09
2022-09-05T13:40:20.421Z,36.18
2022-09-05T13:43:09.025Z,37.39
2022-09-05T13:45:45.574Z,37.07
2022-09-05T13:49:23.422Z,37.16
2022-09-05T13:51:36.077Z,36.82
2022-09-05T13:54:24.434Z,36.48
2022-09-05T13:57:32.684Z,34.66
2022-09-05T14:00:27.241Z,33.88
2022-09-05T14:03:39.329Z,34.85
2022-09-05T14:06:47.311Z,34.86
2022-09-05T14:09:46.478Z,35.04
2022-09-05T14:12:25.377Z,36.21
2022-09-05T14:15:09.353Z,37.36
2022-09-05T14:18:00.794Z,37.99
2022-09-05T14:21:02.004Z,38.31
2022-09-05T14:23:48.546Z,39.19
2022-09-05T14:26:23.606Z,39.53
2022-09-05T14:29:02.266Z,39.28
2022-09-05T14:37:37.322Z,38.86
2022-09-05T14:37:41.893Z,38.55
2022-09-05T14:38:15.923Z,38.83
2022-09-05T14:41:10.676Z,39.08
2022-09-05T14:44:02.129Z,38.99
2022-09-05T14:46:49.828Z,38.63
2022-09-05T14:49:39.983Z,38.81
2022-09-05T14:52:44.854Z,38.35
2022-09-05T15:02:46.198Z,38.88
2022-09-05T15:02:51.669Z,38.81
2022-09-05T15:06:36.490Z,39.07
2022-09-05T15:12:17.669Z,38.25
2022-09-05T15:12:25.815Z,38.36
2022-09-05T15:14:45.394Z,37.65
2022-09-05T15:17:22.653Z,38.02
2022-09-05T15:20:04.995Z,37.68
2022-09-05T15:22:35.405Z,37.82
2022-09-05T15:25:21.502Z,37.65
2022-09-05T15:27:49.532Z,37.85
2022-09-05T15:30:25.595Z,37.60
2022-09-05T15:33:31.390Z,36.96
2022-09-05T15:35:59.360Z,37.68
2022-09-05T15:38:30.495Z,37.77
2022-09-05T15:41:12.175Z,37.40
2022-09-05T15:43:53.077Z,37.93
2022-09-05T15:46:29.583Z,37.16
2022-09-05T15:49:03.834Z,37.63
2022-09-05T15:51:50.236Z,37.06
2022-09-05T15:54:37.589Z,37.39
2022-09-05T15:57:09.007Z,36.63
2022-09-05T15:59:49.295Z,37.65
2022-09-05T16:02:24.062Z,37.19
2022-09-05T16:10:27.035Z,37.24
2022-09-05T16:10:47.281Z,37.54
2022-09-05T16:11:20.419Z,37.56
2022-09-05T16:13:52.996Z,36.55
2022-09-05T16:23:11.644Z,36.65
2022-09-05T16:23:26.988Z,36.29
2022-09-05T16:23:30.904Z,36.31
2022-09-05T16:25:03.497Z,36.20
2022-09-05T16:27:47.069Z,36.74
2022-09-05T16:30:24.146Z,36.79
2022-09-05T16:32:57.117Z,36.98
2022-09-05T16:35:26.750Z,37.02
2022-09-05T16:38:02.095Z,36.35
2022-09-05T16:40:37.968Z,36.81
2022-09-05T16:43:18.233Z,36.92
2022-09-05T16:45:52.190Z,37.39
2022-09-05T16:48:30.296Z,37.15
2022-09-05T16:51:34.860Z,37.12
2022-09-05T16:54:24.377Z,37.22
2022-09-05T16:57:04.601Z,37.38
2022-09-05T16:59:34.818Z,37.50
2022-09-05T17:02:20.067Z,37.29
2022-09-05T17:05:03.127Z,37.56
2022-09-05T17:07:52.509Z,37.48
2022-09-05T17:10:24.696Z,37.36
2022-09-05T17:12:52.584Z,37.54
2022-09-05T17:15:26.076Z,38.26
2022-09-05T17:18:18.643Z,38.33
2022-09-05T17:20:53.957Z,38.81
2022-09-05T17:29:11.392Z,39.09
2022-09-05T17:29:33.947Z,39.39
2022-09-05T17:32:39.013Z,39.46
2022-09-05T17:35:42.159Z,39.69
2022-09-05T17:38:28.411Z,40.20
2022-09-05T17:41:34.170Z,40.73
2022-09-05T17:44:38.700Z,41.21
2022-09-05T17:47:27.481Z,41.32
2022-09-05T17:50:18.931Z,41.54
2022-09-05T17:52:54.683Z,42.71
2022-09-05T17:55:41.868Z,43.12
2022-09-05T17:58:20.922Z,43.37
2022-09-05T18:00:50.363Z,43.26
2022-09-05T18:03:38.546Z,43.52
2022-09-05T18:06:27.133Z,43.59
2022-09-05T18:08:53.692Z,43.36
2022-09-05T18:11:25.435Z,43.79
2022-09-05T18:14:02.457Z,44.15
2022-09-05T18:16:42.140Z,44.91
2022-09-05T18:19:34.183Z,45.05
2022-09-05T18:22:08.219Z,45.16
2022-09-05T18:24:53.075Z,45.69
2022-09-05T18:27:37.908Z,46.10
2022-09-05T18:30:18.566Z,45.84
2022-09-05T18:33:55.346Z,45.59
2022-09-05T18:35:53.582Z,45.31
2022-09-05T18:38:49.960Z,45.79
2022-09-05T18:41:18.307Z,46.51
2022-09-05T18:44:13.244Z,47.13
2022-09-05T18:46:50.089Z,47.57
2022-09-05T18:50:22.041Z,48.02
2022-09-05T18:52:32.698Z,48.51
2022-09-05T18:56:10.448Z,49.34
2022-09-05T18:57:59.050Z,49.12
2022-09-05T19:00:44.619Z,49.35
2022-09-05T19:03:19.436Z,49.28
2022-09-05T19:06:36.072Z,49.64
2022-09-05T19:08:54.820Z,49.67
2022-09-05T19:11:28.101Z,49.96
2022-09-05T19:14:25.308Z,50.50
2022-09-05T19:16:48.095Z,50.89
2022-09-05T19:19:24.503Z,50.87
2022-09-05T19:22:45.174Z,50.82
2022-09-05T19:24:46.275Z,51.06
2022-09-05T19:28:55.454Z,51.98
2022-09-05T19:36:56.641Z,53.04
2022-09-05T19:37:06.990Z,53.36
2022-09-05T19:37:08.708Z,53.19
2022-09-05T19:38:24.726Z,53.59
2022-09-05T19:47:34.630Z,53.73
2022-09-05T19:47:38.172Z,54.13
2022-09-05T19:47:44.521Z,54.18
2022-09-05T19:49:36.526Z,54.03
2022-09-05T19:52:17.934Z,53.84
2022-09-05T19:54:50.917Z,54.36
2022-09-05T19:57:21.851Z,54.50
2022-09-05T19:59:54.326Z,54.82
2022-09-05T20:02:26.520Z,54.67
2022-09-05T20:04:57.307Z,55.38
2022-09-05T20:07:29.282Z,55.51
2022-09-05T20:09:57.927Z,55.75
2022-09-05T20:12:33.353Z,56.11
2022-09-05T20:15:27.808Z,55.84
2022-09-05T20:18:27.305Z,56.03
2022-09-05T20:21:14.439Z,56.03
2022-09-05T20:23:51.409Z,56.07
2022-09-05T20:26:22.221Z,56.18
2022-09-05T20:28:54.677Z,56.41
2022-09-05T20:31:27.107Z,56.79
2022-09-05T20:34:03.503Z,56.85
2022-09-05T20:43:14.437Z,57.35
2022-09-05T20:43:19.264Z,57.54
2022-09-05T20:43:31.115Z,57.41
2022-09-05T20:45:42.964Z,58.25
2022-09-05T20:54:06.259Z,58.58
2022-09-05T20:54:25.732Z,58.70
2022-09-05T20:54:28.126Z,58.74
2022-09-05T20:56:32.914Z,58.66
2022-09-05T20:59:00.815Z,58.69
2022-09-05T21:01:28.171Z,58.79
2022-09-05T21:03:57.668Z,58.90
2022-09-05T21:06:26.487Z,59.12
2022-09-05T21:08:55.844Z,59.15
2022-09-05T21:11:32.668Z,59.59
2022-09-05T21:14:02.843Z,59.58
2022-09-05T21:16:34.204Z,60.23
2022-09-05T21:19:01.120Z,59.80
2022-09-05T21:21:30.647Z,59.64
2022-09-05T21:23:58.964Z,60.30
2022-09-05T21:26:32.237Z,60.42
2022-09-05T21:29:27.489Z,60.39
2022-09-05T21:32:01.755Z,60.73
2022-09-05T21:34:43.414Z,60.43
2022-09-05T21:37:14.413Z,60.51
2022-09-05T21:39:59.096Z,60.15
2022-09-05T21:44:05.775Z,60.72
2022-09-05T21:47:38.027Z,61.04
2022-09-05T21:48:06.198Z,61.11
2022-09-05T21:50:38.852Z,61.13
2022-09-05T21:53:21.446Z,61.55
2022-09-05T21:59:19.094Z,61.74
2022-09-05T21:59:27.322Z,61.77
2022-09-05T22:01:44.902Z,61.80
2022-09-05T22:04:16.744Z,61.49
2022-09-05T22:06:48.190Z,61.69
2022-09-05T22:09:19.538Z,61.69
2022-09-05T22:11:52.368Z,61.70
2022-09-05T22:14:22.198Z,62.55
2022-09-05T22:16:51.455Z,62.17
2022-09-05T22:19:26.134Z,63.09
2022-09-05T22:22:15.468Z,63.28
2022-09-05T22:24:55.290Z,63.66
2022-09-05T22:27:25.912Z,63.61
2022-09-05T22:29:52.897Z,63.57
2022-09-05T22:32:34.689Z,63.12
2022-09-05T22:35:26.831Z,63.51
2022-09-05T22:37:55.308Z,64.62
2022-09-05T22:40:28.001Z,64.62
2022-09-05T22:42:55.933Z,65.14
2022-09-05T22:45:22.593Z,65.50
2022-09-05T22:47:49.071Z,66.20
2022-09-05T22:50:15.526Z,66.65
2022-09-05T22:52:42.151Z,67.10
2022-09-05T22:55:09.200Z,66.49
2022-09-05T22:57:38.175Z,65.50
2022-09-05T23:00:05.634Z,65.74
2022-09-05T23:02:32.066Z,65.60
2022-09-05T23:04:58.492Z,65.51
2022-09-05T23:07:24.975Z,65.12
2022-09-05T23:09:51.483Z,64.93
2022-09-05T23:12:17.979Z,64.56
2022-09-05T23:14:44.522Z,64.97
2022-09-05T23:17:13.174Z,65.28
2022-09-05T23:19:39.666Z,65.32
2022-09-05T23:22:06.374Z,64.86
2022-09-05T23:24:32.899Z,65.13
2022-09-05T23:26:59.764Z,65.25
2022-09-05T23:29:26.319Z,65.20
2022-09-05T23:31:52.887Z,65.30
2022-09-05T23:34:19.519Z,65.27
2022-09-05T23:36:45.962Z,64.98
2022-09-05T23:39:13.035Z,65.86
2022-09-05T23:41:39.475Z,66.74
2022-09-05T23:44:05.894Z,66.98
2022-09-05T23:46:32.419Z,67.08
2022-09-05T23:48:58.902Z,66.83
2022-09-05T23:51:25.419Z,66.06
2022-09-05T23:53:51.918Z,65.83
2022-09-05T23:56:18.517Z,65.70
2022-09-05T23:58:45.607Z,65.48
